sensor_id;sensor_type;location;lat;lon;timestamp;pressure;altitude;pressure_sealevel;temperature;humidity
19096;BME280;9680;52.520;13.332;2023-12-22T00:01:27;98264.69;;;4.60;71.20
19096;BME280;9680;52.520;13.332;2023-12-22T00:03:54;98244.91;;;4.60;70.77
19096;BME280;9680;52.520;13.332;2023-12-22T00:06:21;98285.47;;;4.57;71.24
19096;BME280;9680;52.520;13.332;2023-12-22T00:08:49;98263.28;;;4.54;70.79
19096;BME280;9680;52.520;13.332;2023-12-22T00:11:16;98277.09;;;4.53;70.07
19096;BME280;9680;52.520;13.332;2023-12-22T00:13:43;98278.31;;;4.46;70.44
19096;BME280;9680;52.520;13.332;2023-12-22T00:16:10;98296.53;;;4.43;70.54
19096;BME280;9680;52.520;13.332;2023-12-22T00:18:37;98266.66;;;4.39;70.17
19096;BME280;9680;52.520;13.332;2023-12-22T00:21:04;98284.88;;;4.35;70.07
19096;BME280;9680;52.520;13.332;2023-12-22T00:23:30;98296.16;;;4.33;70.04
19096;BME280;9680;52.520;13.332;2023-12-22T00:26:02;98300.09;;;4.40;69.19
19096;BME280;9680;52.520;13.332;2023-12-22T00:28:29;98298.19;;;4.44;68.49
19096;BME280;9680;52.520;13.332;2023-12-22T00:30:57;98311.44;;;4.54;68.07
19096;BME280;9680;52.520;13.332;2023-12-22T00:33:23;98307.72;;;4.59;67.59
19096;BME280;9680;52.520;13.332;2023-12-22T00:35:50;98303.16;;;4.64;67.77
19096;BME280;9680;52.520;13.332;2023-12-22T00:38:17;98307.00;;;4.73;66.88
19096;BME280;9680;52.520;13.332;2023-12-22T00:40:44;98328.28;;;4.77;67.06
19096;BME280;9680;52.520;13.332;2023-12-22T00:43:12;98322.97;;;4.80;66.96
19096;BME280;9680;52.520;13.332;2023-12-22T00:45:38;98338.22;;;4.85;66.94
19096;BME280;9680;52.520;13.332;2023-12-22T00:48:05;98324.56;;;4.83;67.56
19096;BME280;9680;52.520;13.332;2023-12-22T00:50:32;98353.44;;;4.89;67.67
19096;BME280;9680;52.520;13.332;2023-12-22T00:52:58;98339.03;;;4.85;68.05
19096;BME280;9680;52.520;13.332;2023-12-22T00:55:25;98370.31;;;4.79;68.42
19096;BME280;9680;52.520;13.332;2023-12-22T00:57:51;98360.91;;;4.78;68.94
19096;BME280;9680;52.520;13.332;2023-12-22T01:00:20;98353.09;;;4.79;69.11
19096;BME280;9680;52.520;13.332;2023-12-22T01:02:46;98385.03;;;4.77;68.92
19096;BME280;9680;52.520;13.332;2023-12-22T01:05:13;98357.38;;;4.63;69.53
19096;BME280;9680;52.520;13.332;2023-12-22T01:07:40;98388.72;;;4.55;70.26
19096;BME280;9680;52.520;13.332;2023-12-22T01:10:07;98389.69;;;4.52;70.96
19096;BME280;9680;52.520;13.332;2023-12-22T01:12:34;98388.19;;;4.48;71.66
19096;BME280;9680;52.520;13.332;2023-12-22T01:15:01;98388.13;;;4.50;72.04
19096;BME280;9680;52.520;13.332;2023-12-22T01:17:29;98398.28;;;4.53;72.70
19096;BME280;9680;52.520;13.332;2023-12-22T01:19:56;98393.94;;;4.54;72.96
19096;BME280;9680;52.520;13.332;2023-12-22T01:22:22;98407.59;;;4.56;73.27
19096;BME280;9680;52.520;13.332;2023-12-22T01:24:49;98398.03;;;4.58;73.35
19096;BME280;9680;52.520;13.332;2023-12-22T01:27:16;98395.75;;;4.51;73.45
19096;BME280;9680;52.520;13.332;2023-12-22T01:29:43;98410.56;;;4.48;74.04
19096;BME280;9680;52.520;13.332;2023-12-22T01:32:10;98442.19;;;4.51;74.13
19096;BME280;9680;52.520;13.332;2023-12-22T01:34:38;98426.56;;;4.55;74.23
19096;BME280;9680;52.520;13.332;2023-12-22T01:37:05;98413.91;;;4.50;74.49
19096;BME280;9680;52.520;13.332;2023-12-22T01:39:32;98402.00;;;4.47;74.82
19096;BME280;9680;52.520;13.332;2023-12-22T01:41:59;98410.88;;;4.59;73.82
19096;BME280;9680;52.520;13.332;2023-12-22T01:44:25;98419.72;;;4.54;74.45
19096;BME280;9680;52.520;13.332;2023-12-22T01:46:52;98432.25;;;4.44;74.86
19096;BME280;9680;52.520;13.332;2023-12-22T01:49:20;98416.19;;;4.39;74.92
19096;BME280;9680;52.520;13.332;2023-12-22T01:51:49;98420.66;;;4.35;75.25
19096;BME280;9680;52.520;13.332;2023-12-22T01:54:16;98429.38;;;4.32;75.44
19096;BME280;9680;52.520;13.332;2023-12-22T01:56:42;98434.59;;;4.31;75.80
19096;BME280;9680;52.520;13.332;2023-12-22T01:59:10;98434.53;;;4.32;75.92
19096;BME280;9680;52.520;13.332;2023-12-22T02:01:37;98430.00;;;4.37;75.14
19096;BME280;9680;52.520;13.332;2023-12-22T02:04:05;98430.28;;;4.31;75.70
19096;BME280;9680;52.520;13.332;2023-12-22T02:06:32;98442.88;;;4.37;75.66
19096;BME280;9680;52.520;13.332;2023-12-22T02:09:02;98447.63;;;4.45;75.00
19096;BME280;9680;52.520;13.332;2023-12-22T02:11:30;98455.38;;;4.45;75.13
19096;BME280;9680;52.520;13.332;2023-12-22T02:13:57;98455.47;;;4.44;75.06
19096;BME280;9680;52.520;13.332;2023-12-22T02:16:31;98459.69;;;4.27;75.59
19096;BME280;9680;52.520;13.332;2023-12-22T02:19:03;98458.47;;;4.17;76.25
19096;BME280;9680;52.520;13.332;2023-12-22T02:21:36;98451.25;;;4.06;76.95
19096;BME280;9680;52.520;13.332;2023-12-22T02:24:05;98442.47;;;4.10;77.17
19096;BME280;9680;52.520;13.332;2023-12-22T02:26:35;98428.97;;;4.05;77.51
19096;BME280;9680;52.520;13.332;2023-12-22T02:29:03;98431.00;;;3.98;78.12
19096;BME280;9680;52.520;13.332;2023-12-22T02:31:36;98437.69;;;4.02;78.20
19096;BME280;9680;52.520;13.332;2023-12-22T02:34:07;98439.28;;;4.05;78.04
19096;BME280;9680;52.520;13.332;2023-12-22T02:36:38;98445.25;;;4.05;78.48
19096;BME280;9680;52.520;13.332;2023-12-22T02:39:08;98450.97;;;4.12;78.47
19096;BME280;9680;52.520;13.332;2023-12-22T02:41:36;98431.72;;;4.19;77.80
19096;BME280;9680;52.520;13.332;2023-12-22T02:44:04;98423.69;;;4.26;77.53
19096;BME280;9680;52.520;13.332;2023-12-22T02:46:31;98439.59;;;4.16;76.91
19096;BME280;9680;52.520;13.332;2023-12-22T02:48:57;98440.06;;;4.07;76.80
19096;BME280;9680;52.520;13.332;2023-12-22T02:51:24;98426.16;;;3.92;77.46
19096;BME280;9680;52.520;13.332;2023-12-22T02:53:51;98445.66;;;3.98;77.39
19096;BME280;9680;52.520;13.332;2023-12-22T02:56:19;98440.91;;;3.88;77.43
19096;BME280;9680;52.520;13.332;2023-12-22T02:58:45;98438.47;;;3.85;77.93
19096;BME280;9680;52.520;13.332;2023-12-22T03:01:12;98446.97;;;3.87;77.99
19096;BME280;9680;52.520;13.332;2023-12-22T03:03:39;98428.94;;;3.87;77.82
19096;BME280;9680;52.520;13.332;2023-12-22T03:06:05;98442.09;;;3.81;78.25
19096;BME280;9680;52.520;13.332;2023-12-22T03:08:32;98414.75;;;3.78;78.59
19096;BME280;9680;52.520;13.332;2023-12-22T03:10:59;98426.78;;;3.78;78.77
19096;BME280;9680;52.520;13.332;2023-12-22T03:13:27;98447.63;;;3.73;78.97
19096;BME280;9680;52.520;13.332;2023-12-22T03:15:54;98442.63;;;3.70;79.14
19096;BME280;9680;52.520;13.332;2023-12-22T03:18:20;98441.78;;;3.70;79.26
19096;BME280;9680;52.520;13.332;2023-12-22T03:20:47;98429.03;;;3.67;79.33
19096;BME280;9680;52.520;13.332;2023-12-22T03:23:14;98427.38;;;3.66;79.66
19096;BME280;9680;52.520;13.332;2023-12-22T03:25:40;98454.66;;;3.70;79.36
19096;BME280;9680;52.520;13.332;2023-12-22T03:28:07;98434.28;;;3.65;79.77
19096;BME280;9680;52.520;13.332;2023-12-22T03:30:35;98432.53;;;3.66;80.07
19096;BME280;9680;52.520;13.332;2023-12-22T03:33:03;98434.88;;;3.70;79.87
19096;BME280;9680;52.520;13.332;2023-12-22T03:35:31;98433.97;;;3.71;79.90
19096;BME280;9680;52.520;13.332;2023-12-22T03:37:58;98433.00;;;3.74;79.79
19096;BME280;9680;52.520;13.332;2023-12-22T03:40:25;98440.72;;;3.74;80.09
19096;BME280;9680;52.520;13.332;2023-12-22T03:42:51;98450.06;;;3.76;79.80
19096;BME280;9680;52.520;13.332;2023-12-22T03:45:18;98442.25;;;3.78;79.88
19096;BME280;9680;52.520;13.332;2023-12-22T03:47:46;98443.91;;;3.79;79.86
19096;BME280;9680;52.520;13.332;2023-12-22T03:50:13;98449.91;;;3.79;79.84
19096;BME280;9680;52.520;13.332;2023-12-22T03:52:39;98451.28;;;3.87;79.65
19096;BME280;9680;52.520;13.332;2023-12-22T03:55:06;98443.94;;;3.97;78.80
19096;BME280;9680;52.520;13.332;2023-12-22T03:57:33;98470.13;;;4.06;77.90
19096;BME280;9680;52.520;13.332;2023-12-22T04:00:00;98447.84;;;4.05;78.19
19096;BME280;9680;52.520;13.332;2023-12-22T04:02:29;98458.84;;;4.09;78.15
19096;BME280;9680;52.520;13.332;2023-12-22T04:04:57;98465.72;;;4.08;78.02
19096;BME280;9680;52.520;13.332;2023-12-22T04:07:24;98468.25;;;4.10;78.36
19096;BME280;9680;52.520;13.332;2023-12-22T04:09:51;98455.28;;;4.12;78.77
19096;BME280;9680;52.520;13.332;2023-12-22T04:12:18;98462.34;;;4.08;79.47
19096;BME280;9680;52.520;13.332;2023-12-22T04:14:44;98447.53;;;4.12;79.36
19096;BME280;9680;52.520;13.332;2023-12-22T04:17:11;98465.06;;;4.05;79.86
19096;BME280;9680;52.520;13.332;2023-12-22T04:19:38;98448.13;;;3.99;80.48
19096;BME280;9680;52.520;13.332;2023-12-22T04:22:06;98435.69;;;3.90;81.56
19096;BME280;9680;52.520;13.332;2023-12-22T04:24:32;98458.88;;;3.90;82.17
19096;BME280;9680;52.520;13.332;2023-12-22T04:26:59;98451.72;;;3.77;82.46
19096;BME280;9680;52.520;13.332;2023-12-22T04:29:25;98446.16;;;3.68;83.17
19096;BME280;9680;52.520;13.332;2023-12-22T04:31:52;98441.16;;;3.64;83.48
19096;BME280;9680;52.520;13.332;2023-12-22T04:34:19;98440.59;;;3.58;84.06
19096;BME280;9680;52.520;13.332;2023-12-22T04:36:45;98436.56;;;3.52;84.61
19096;BME280;9680;52.520;13.332;2023-12-22T04:39:14;98436.63;;;3.50;85.15
19096;BME280;9680;52.520;13.332;2023-12-22T04:41:41;98439.06;;;3.54;85.03
19096;BME280;9680;52.520;13.332;2023-12-22T04:44:07;98452.56;;;3.59;84.78
19096;BME280;9680;52.520;13.332;2023-12-22T04:46:34;98443.91;;;3.60;84.26
19096;BME280;9680;52.520;13.332;2023-12-22T04:49:01;98451.66;;;3.60;84.28
19096;BME280;9680;52.520;13.332;2023-12-22T04:51:27;98449.84;;;3.62;84.25
19096;BME280;9680;52.520;13.332;2023-12-22T04:53:54;98442.00;;;3.65;84.40
19096;BME280;9680;52.520;13.332;2023-12-22T04:56:22;98454.06;;;3.63;84.34
19096;BME280;9680;52.520;13.332;2023-12-22T04:58:49;98444.69;;;3.62;84.98
19096;BME280;9680;52.520;13.332;2023-12-22T05:01:15;98458.28;;;3.66;85.52
19096;BME280;9680;52.520;13.332;2023-12-22T05:03:43;98479.19;;;3.58;85.62
19096;BME280;9680;52.520;13.332;2023-12-22T05:06:09;98488.53;;;3.41;86.39
19096;BME280;9680;52.520;13.332;2023-12-22T05:08:36;98477.72;;;3.14;88.26
19096;BME280;9680;52.520;13.332;2023-12-22T05:11:03;98458.44;;;3.03;89.94
19096;BME280;9680;52.520;13.332;2023-12-22T05:13:31;98455.81;;;3.05;89.87
19096;BME280;9680;52.520;13.332;2023-12-22T05:15:58;98450.97;;;2.97;90.02
19096;BME280;9680;52.520;13.332;2023-12-22T05:18:25;98441.59;;;2.96;90.49
19096;BME280;9680;52.520;13.332;2023-12-22T05:20:52;98455.41;;;2.94;90.52
19096;BME280;9680;52.520;13.332;2023-12-22T05:23:19;98445.88;;;2.96;90.45
19096;BME280;9680;52.520;13.332;2023-12-22T05:25:46;98434.19;;;2.88;90.63
19096;BME280;9680;52.520;13.332;2023-12-22T05:28:12;98437.88;;;2.83;90.45
19096;BME280;9680;52.520;13.332;2023-12-22T05:30:41;98433.16;;;2.73;90.96
19096;BME280;9680;52.520;13.332;2023-12-22T05:33:07;98441.50;;;2.79;91.68
19096;BME280;9680;52.520;13.332;2023-12-22T05:35:34;98439.06;;;2.75;91.14
19096;BME280;9680;52.520;13.332;2023-12-22T05:38:01;98466.75;;;2.69;91.72
19096;BME280;9680;52.520;13.332;2023-12-22T05:40:28;98454.94;;;2.65;91.90
19096;BME280;9680;52.520;13.332;2023-12-22T05:42:55;98449.66;;;2.68;92.12
19096;BME280;9680;52.520;13.332;2023-12-22T05:45:22;98426.50;;;2.68;92.34
19096;BME280;9680;52.520;13.332;2023-12-22T05:47:51;98441.13;;;2.67;91.64
19096;BME280;9680;52.520;13.332;2023-12-22T05:50:18;98444.06;;;2.58;91.97
19096;BME280;9680;52.520;13.332;2023-12-22T05:52:44;98455.88;;;2.62;92.27
19096;BME280;9680;52.520;13.332;2023-12-22T05:55:11;98460.91;;;2.65;91.92
19096;BME280;9680;52.520;13.332;2023-12-22T05:57:38;98449.00;;;2.62;91.87
19096;BME280;9680;52.520;13.332;2023-12-22T06:00:05;98447.97;;;2.67;91.93
19096;BME280;9680;52.520;13.332;2023-12-22T06:02:35;98454.47;;;2.75;91.55
19096;BME280;9680;52.520;13.332;2023-12-22T06:05:04;98438.72;;;2.83;90.06
19096;BME280;9680;52.520;13.332;2023-12-22T06:07:30;98445.38;;;2.87;89.46
19096;BME280;9680;52.520;13.332;2023-12-22T06:09:58;98457.47;;;2.85;87.41
19096;BME280;9680;52.520;13.332;2023-12-22T06:12:25;98448.88;;;2.86;86.27
19096;BME280;9680;52.520;13.332;2023-12-22T06:14:51;98460.19;;;2.82;86.11
19096;BME280;9680;52.520;13.332;2023-12-22T06:17:18;98462.97;;;2.78;85.60
19096;BME280;9680;52.520;13.332;2023-12-22T06:19:45;98452.19;;;2.69;85.15
19096;BME280;9680;52.520;13.332;2023-12-22T06:22:13;98457.09;;;2.74;85.19
19096;BME280;9680;52.520;13.332;2023-12-22T06:24:39;98446.56;;;2.80;83.59
19096;BME280;9680;52.520;13.332;2023-12-22T06:27:06;98455.31;;;2.76;83.71
19096;BME280;9680;52.520;13.332;2023-12-22T06:29:33;98463.88;;;2.76;83.13
19096;BME280;9680;52.520;13.332;2023-12-22T06:32:00;98455.44;;;2.73;83.46
19096;BME280;9680;52.520;13.332;2023-12-22T06:34:27;98466.31;;;2.80;83.97
19096;BME280;9680;52.520;13.332;2023-12-22T06:36:53;98462.31;;;2.93;83.02
19096;BME280;9680;52.520;13.332;2023-12-22T06:39:21;98464.44;;;3.04;82.66
19096;BME280;9680;52.520;13.332;2023-12-22T06:41:48;98467.75;;;3.06;83.37
19096;BME280;9680;52.520;13.332;2023-12-22T06:44:15;98466.78;;;3.09;84.32
19096;BME280;9680;52.520;13.332;2023-12-22T06:46:42;98464.44;;;3.04;85.24
19096;BME280;9680;52.520;13.332;2023-12-22T06:49:09;98465.97;;;2.87;86.18
19096;BME280;9680;52.520;13.332;2023-12-22T06:51:35;98465.53;;;2.78;87.36
19096;BME280;9680;52.520;13.332;2023-12-22T06:54:03;98470.94;;;2.71;88.44
19096;BME280;9680;52.520;13.332;2023-12-22T06:56:33;98468.63;;;2.65;89.02
19096;BME280;9680;52.520;13.332;2023-12-22T06:59:00;98465.06;;;2.68;89.71
19096;BME280;9680;52.520;13.332;2023-12-22T07:01:29;98476.22;;;2.68;89.65
19096;BME280;9680;52.520;13.332;2023-12-22T07:03:57;98485.50;;;2.71;89.63
19096;BME280;9680;52.520;13.332;2023-12-22T07:06:26;98482.81;;;2.74;89.35
19096;BME280;9680;52.520;13.332;2023-12-22T07:08:57;98519.47;;;2.79;88.64
19096;BME280;9680;52.520;13.332;2023-12-22T07:11:24;98523.66;;;2.82;88.82
19096;BME280;9680;52.520;13.332;2023-12-22T07:13:52;98519.16;;;2.87;88.54
19096;BME280;9680;52.520;13.332;2023-12-22T07:16:19;98524.22;;;2.88;88.41
19096;BME280;9680;52.520;13.332;2023-12-22T07:18:45;98529.34;;;2.88;88.80
19096;BME280;9680;52.520;13.332;2023-12-22T07:21:16;98541.56;;;2.83;89.07
19096;BME280;9680;52.520;13.332;2023-12-22T07:23:43;98540.09;;;2.78;88.64
19096;BME280;9680;52.520;13.332;2023-12-22T07:26:10;98533.34;;;2.75;88.34
19096;BME280;9680;52.520;13.332;2023-12-22T07:28:38;98530.78;;;2.75;88.31
19096;BME280;9680;52.520;13.332;2023-12-22T07:31:06;98538.56;;;2.73;88.38
19096;BME280;9680;52.520;13.332;2023-12-22T07:33:33;98535.66;;;2.81;88.05
19096;BME280;9680;52.520;13.332;2023-12-22T07:36:00;98515.84;;;2.83;88.09
19096;BME280;9680;52.520;13.332;2023-12-22T07:38:27;98537.84;;;2.90;87.42
19096;BME280;9680;52.520;13.332;2023-12-22T07:40:54;98534.00;;;3.01;85.73
19096;BME280;9680;52.520;13.332;2023-12-22T07:43:20;98527.06;;;3.03;84.65
19096;BME280;9680;52.520;13.332;2023-12-22T07:45:47;98536.63;;;2.99;85.11
19096;BME280;9680;52.520;13.332;2023-12-22T07:48:17;98532.84;;;3.08;84.67
19096;BME280;9680;52.520;13.332;2023-12-22T07:50:44;98526.47;;;3.17;83.94
19096;BME280;9680;52.520;13.332;2023-12-22T07:53:11;98528.91;;;3.20;84.12
19096;BME280;9680;52.520;13.332;2023-12-22T07:55:38;98544.06;;;3.26;83.29
19096;BME280;9680;52.520;13.332;2023-12-22T07:58:05;98553.41;;;3.29;82.17
19096;BME280;9680;52.520;13.332;2023-12-22T08:00:32;98552.47;;;3.31;81.99
19096;BME280;9680;52.520;13.332;2023-12-22T08:02:59;98521.50;;;3.33;82.45
19096;BME280;9680;52.520;13.332;2023-12-22T08:05:28;98535.00;;;3.38;81.25
19096;BME280;9680;52.520;13.332;2023-12-22T08:07:55;98542.22;;;3.30;81.53
19096;BME280;9680;52.520;13.332;2023-12-22T08:10:22;98553.69;;;3.23;81.32
19096;BME280;9680;52.520;13.332;2023-12-22T08:12:48;98541.00;;;3.18;80.93
19096;BME280;9680;52.520;13.332;2023-12-22T08:15:15;98548.94;;;3.13;81.20
19096;BME280;9680;52.520;13.332;2023-12-22T08:17:46;98568.03;;;3.08;81.13
19096;BME280;9680;52.520;13.332;2023-12-22T08:20:16;98568.91;;;3.06;80.83
19096;BME280;9680;52.520;13.332;2023-12-22T08:22:46;98574.44;;;2.97;81.01
19096;BME280;9680;52.520;13.332;2023-12-22T08:25:13;98586.78;;;2.89;82.14
19096;BME280;9680;52.520;13.332;2023-12-22T08:27:39;98584.56;;;3.02;81.99
19096;BME280;9680;52.520;13.332;2023-12-22T08:30:07;98582.75;;;3.04;81.56
19096;BME280;9680;52.520;13.332;2023-12-22T08:32:34;98591.44;;;3.01;82.28
19096;BME280;9680;52.520;13.332;2023-12-22T08:35:01;98578.31;;;3.08;82.40
19096;BME280;9680;52.520;13.332;2023-12-22T08:37:28;98615.22;;;3.06;81.61
19096;BME280;9680;52.520;13.332;2023-12-22T08:39:56;98629.28;;;2.98;81.92
19096;BME280;9680;52.520;13.332;2023-12-22T08:42:23;98604.66;;;2.92;81.98
19096;BME280;9680;52.520;13.332;2023-12-22T08:44:50;98603.81;;;2.91;81.60
19096;BME280;9680;52.520;13.332;2023-12-22T08:47:17;98628.72;;;2.91;81.19
19096;BME280;9680;52.520;13.332;2023-12-22T08:49:43;98621.78;;;2.93;80.84
19096;BME280;9680;52.520;13.332;2023-12-22T08:52:10;98626.41;;;2.85;81.12
19096;BME280;9680;52.520;13.332;2023-12-22T08:54:38;98640.47;;;2.97;81.15
19096;BME280;9680;52.520;13.332;2023-12-22T08:57:06;98623.19;;;3.00;80.44
19096;BME280;9680;52.520;13.332;2023-12-22T08:59:34;98631.44;;;3.09;79.79
19096;BME280;9680;52.520;13.332;2023-12-22T09:02:01;98627.91;;;3.11;79.76
19096;BME280;9680;52.520;13.332;2023-12-22T09:04:27;98626.88;;;3.15;80.14
19096;BME280;9680;52.520;13.332;2023-12-22T09:06:54;98606.94;;;3.20;79.17
19096;BME280;9680;52.520;13.332;2023-12-22T09:09:21;98625.13;;;3.16;79.35
19096;BME280;9680;52.520;13.332;2023-12-22T09:11:49;98641.09;;;3.24;78.72
19096;BME280;9680;52.520;13.332;2023-12-22T09:14:18;98654.03;;;3.23;79.28
19096;BME280;9680;52.520;13.332;2023-12-22T09:16:44;98633.97;;;3.31;78.71
19096;BME280;9680;52.520;13.332;2023-12-22T09:19:12;98621.97;;;3.50;77.14
19096;BME280;9680;52.520;13.332;2023-12-22T09:21:39;98650.16;;;3.54;76.38
19096;BME280;9680;52.520;13.332;2023-12-22T09:24:06;98648.31;;;3.57;76.95
19096;BME280;9680;52.520;13.332;2023-12-22T09:26:32;98643.66;;;3.66;76.68
19096;BME280;9680;52.520;13.332;2023-12-22T09:28:59;98654.69;;;3.69;75.81
19096;BME280;9680;52.520;13.332;2023-12-22T09:31:27;98656.91;;;3.77;74.67
19096;BME280;9680;52.520;13.332;2023-12-22T09:33:54;98667.72;;;3.85;73.97
19096;BME280;9680;52.520;13.332;2023-12-22T09:36:21;98663.34;;;3.87;73.01
19096;BME280;9680;52.520;13.332;2023-12-22T09:38:48;98669.41;;;3.86;73.22
19096;BME280;9680;52.520;13.332;2023-12-22T09:41:14;98670.78;;;3.93;73.12
19096;BME280;9680;52.520;13.332;2023-12-22T09:43:42;98665.47;;;3.98;72.17
19096;BME280;9680;52.520;13.332;2023-12-22T09:46:10;98706.81;;;3.95;71.90
19096;BME280;9680;52.520;13.332;2023-12-22T09:48:41;98666.91;;;3.85;72.03
19096;BME280;9680;52.520;13.332;2023-12-22T09:51:10;98701.06;;;3.88;71.99
19096;BME280;9680;52.520;13.332;2023-12-22T09:53:40;98719.88;;;3.90;72.49
19096;BME280;9680;52.520;13.332;2023-12-22T09:56:08;98725.56;;;3.99;72.02
19096;BME280;9680;52.520;13.332;2023-12-22T09:58:35;98716.47;;;3.90;73.16
19096;BME280;9680;52.520;13.332;2023-12-22T10:01:04;98710.03;;;4.00;73.24
19096;BME280;9680;52.520;13.332;2023-12-22T10:03:33;98698.75;;;4.03;73.03
19096;BME280;9680;52.520;13.332;2023-12-22T10:06:01;98713.81;;;4.12;72.37
19096;BME280;9680;52.520;13.332;2023-12-22T10:08:28;98728.78;;;4.23;72.04
19096;BME280;9680;52.520;13.332;2023-12-22T10:10:56;98722.69;;;4.26;70.75
19096;BME280;9680;52.520;13.332;2023-12-22T10:13:23;98701.16;;;4.27;71.41
19096;BME280;9680;52.520;13.332;2023-12-22T10:15:53;98718.34;;;4.26;71.38
19096;BME280;9680;52.520;13.332;2023-12-22T10:18:22;98741.16;;;4.35;70.72
19096;BME280;9680;52.520;13.332;2023-12-22T10:20:48;98719.81;;;4.32;69.65
19096;BME280;9680;52.520;13.332;2023-12-22T10:23:16;98708.25;;;4.21;69.66
19096;BME280;9680;52.520;13.332;2023-12-22T10:25:43;98696.97;;;4.24;69.27
19096;BME280;9680;52.520;13.332;2023-12-22T10:28:10;98707.00;;;4.30;68.83
19096;BME280;9680;52.520;13.332;2023-12-22T10:30:40;98716.28;;;4.34;68.49
19096;BME280;9680;52.520;13.332;2023-12-22T10:33:07;98738.50;;;4.37;68.56
19096;BME280;9680;52.520;13.332;2023-12-22T10:35:33;98710.28;;;4.34;68.66
19096;BME280;9680;52.520;13.332;2023-12-22T10:38:00;98701.06;;;4.28;68.98
19096;BME280;9680;52.520;13.332;2023-12-22T10:40:29;98713.84;;;4.31;68.39
19096;BME280;9680;52.520;13.332;2023-12-22T10:42:56;98707.00;;;4.30;68.95
19096;BME280;9680;52.520;13.332;2023-12-22T10:45:22;98717.25;;;4.32;69.49
19096;BME280;9680;52.520;13.332;2023-12-22T10:47:50;98711.75;;;4.40;69.00
19096;BME280;9680;52.520;13.332;2023-12-22T10:50:19;98721.03;;;4.44;69.05
19096;BME280;9680;52.520;13.332;2023-12-22T10:52:49;98718.53;;;4.61;68.18
19096;BME280;9680;52.520;13.332;2023-12-22T10:55:16;98718.66;;;4.58;68.08
19096;BME280;9680;52.520;13.332;2023-12-22T10:57:46;98709.09;;;4.60;67.51
19096;BME280;9680;52.520;13.332;2023-12-22T11:00:15;98737.03;;;4.50;68.27
19096;BME280;9680;52.520;13.332;2023-12-22T11:02:43;98716.38;;;4.52;67.94
19096;BME280;9680;52.520;13.332;2023-12-22T11:05:14;98716.22;;;4.55;67.61
19096;BME280;9680;52.520;13.332;2023-12-22T11:07:48;98730.84;;;4.55;66.56
19096;BME280;9680;52.520;13.332;2023-12-22T11:10:18;98752.53;;;4.50;66.46
19096;BME280;9680;52.520;13.332;2023-12-22T11:12:48;98715.09;;;4.42;67.02
19096;BME280;9680;52.520;13.332;2023-12-22T11:15:16;98738.44;;;4.39;67.11
19096;BME280;9680;52.520;13.332;2023-12-22T11:17:44;98752.78;;;4.44;66.86
19096;BME280;9680;52.520;13.332;2023-12-22T11:20:13;98734.19;;;4.37;67.46
19096;BME280;9680;52.520;13.332;2023-12-22T11:22:40;98735.88;;;4.39;67.52
19096;BME280;9680;52.520;13.332;2023-12-22T11:25:09;98720.00;;;4.48;67.57
19096;BME280;9680;52.520;13.332;2023-12-22T11:27:37;98742.91;;;4.54;67.15
19096;BME280;9680;52.520;13.332;2023-12-22T11:30:06;98709.16;;;4.59;66.36
19096;BME280;9680;52.520;13.332;2023-12-22T11:32:34;98719.72;;;4.54;67.22
19096;BME280;9680;52.520;13.332;2023-12-22T11:35:01;98725.00;;;4.51;67.71
19096;BME280;9680;52.520;13.332;2023-12-22T11:37:30;98716.09;;;4.58;67.90
19096;BME280;9680;52.520;13.332;2023-12-22T11:39:57;98701.22;;;4.63;66.53
19096;BME280;9680;52.520;13.332;2023-12-22T11:42:28;98713.03;;;4.69;64.96
19096;BME280;9680;52.520;13.332;2023-12-22T11:44:57;98724.38;;;4.65;65.22
19096;BME280;9680;52.520;13.332;2023-12-22T11:47:25;98710.44;;;4.69;65.31
19096;BME280;9680;52.520;13.332;2023-12-22T11:49:53;98714.41;;;4.76;65.77
19096;BME280;9680;52.520;13.332;2023-12-22T11:52:25;98712.34;;;4.83;66.42
19096;BME280;9680;52.520;13.332;2023-12-22T11:54:54;98719.81;;;4.89;66.66
19096;BME280;9680;52.520;13.332;2023-12-22T11:57:36;98730.41;;;4.83;67.18
19096;BME280;9680;52.520;13.332;2023-12-22T12:00:07;98746.75;;;4.84;67.75
19096;BME280;9680;52.520;13.332;2023-12-22T12:02:40;98763.63;;;4.91;67.50
19096;BME280;9680;52.520;13.332;2023-12-22T12:05:08;98755.16;;;4.87;67.62
19096;BME280;9680;52.520;13.332;2023-12-22T12:07:40;98761.25;;;4.86;67.86
19096;BME280;9680;52.520;13.332;2023-12-22T12:10:09;98735.81;;;4.78;67.76
19096;BME280;9680;52.520;13.332;2023-12-22T12:12:37;98710.41;;;4.88;67.01
19096;BME280;9680;52.520;13.332;2023-12-22T12:15:09;98742.22;;;4.89;66.37
19096;BME280;9680;52.520;13.332;2023-12-22T12:17:42;98758.50;;;4.89;66.56
19096;BME280;9680;52.520;13.332;2023-12-22T12:20:10;98753.34;;;4.89;66.71
19096;BME280;9680;52.520;13.332;2023-12-22T12:22:38;98749.81;;;4.92;66.76
19096;BME280;9680;52.520;13.332;2023-12-22T12:25:09;98751.63;;;4.90;66.72
19096;BME280;9680;52.520;13.332;2023-12-22T12:27:37;98751.16;;;4.81;67.36
19096;BME280;9680;52.520;13.332;2023-12-22T12:30:11;98746.66;;;4.85;67.68
19096;BME280;9680;52.520;13.332;2023-12-22T12:32:39;98751.53;;;4.91;67.99
19096;BME280;9680;52.520;13.332;2023-12-22T12:35:08;98747.22;;;4.92;67.75
19096;BME280;9680;52.520;13.332;2023-12-22T12:37:35;98759.41;;;4.88;67.61
19096;BME280;9680;52.520;13.332;2023-12-22T12:40:03;98765.16;;;4.76;68.03
19096;BME280;9680;52.520;13.332;2023-12-22T12:42:32;98769.00;;;4.67;67.75
19096;BME280;9680;52.520;13.332;2023-12-22T12:44:59;98766.13;;;4.54;68.12
19096;BME280;9680;52.520;13.332;2023-12-22T12:47:26;98756.84;;;4.50;68.65
19096;BME280;9680;52.520;13.332;2023-12-22T12:49:58;98793.63;;;4.54;68.90
19096;BME280;9680;52.520;13.332;2023-12-22T12:52:27;98769.06;;;4.65;68.81
19096;BME280;9680;52.520;13.332;2023-12-22T12:54:54;98769.25;;;4.80;68.90
19096;BME280;9680;52.520;13.332;2023-12-22T12:57:21;98746.31;;;4.93;68.65
19096;BME280;9680;52.520;13.332;2023-12-22T12:59:49;98777.16;;;4.96;68.18
19096;BME280;9680;52.520;13.332;2023-12-22T13:02:16;98747.13;;;4.93;68.35
19096;BME280;9680;52.520;13.332;2023-12-22T13:04:43;98760.03;;;4.93;68.05
19096;BME280;9680;52.520;13.332;2023-12-22T13:07:10;98763.75;;;4.88;69.07
19096;BME280;9680;52.520;13.332;2023-12-22T13:09:39;98768.78;;;4.91;68.54
19096;BME280;9680;52.520;13.332;2023-12-22T13:12:08;98771.22;;;4.94;67.99